Terminal Aerodrome Forecast
Issued by NWS

Current Version | Previous Version | Text Only | Print | Product List | Glossary Off
Versions: 1 2 3 4 5 6 7 8 9 10 11 12 13 14 15 16 17 18 19 20 21 22

000
FTUS41 KILN 022300
TAFLUK
TAF
KLUK 022338Z 0300/0324 VRB04KT P6SM BKN200
     FM030600 09005KT P6SM OVC100
     FM031000 11005KT P6SM OVC050
     FM031300 14008KT 5SM -FZRA OVC015
     FM031600 15008KT 3SM -RA OVC010
     FM031900 22012KT 2SM -RA BR OVC008=

USA.gov is the U.S. government's official web portal to all federal, state and local government web resources and services.